sensor_id;sensor_type;location;lat;lon;timestamp;P1;durP1;ratioP1;P2;durP2;ratioP2
18929;SDS011;43305;52.186;5.598;2023-02-23T00:00:34;85.55;;;37.20;;
18929;SDS011;43305;52.186;5.598;2023-02-23T00:03:01;92.75;;;38.15;;
18929;SDS011;43305;52.186;5.598;2023-02-23T00:05:29;84.13;;;35.90;;
18929;SDS011;43305;52.186;5.598;2023-02-23T00:07:58;92.53;;;37.20;;
18929;SDS011;43305;52.186;5.598;2023-02-23T00:10:26;83.38;;;35.15;;
18929;SDS011;43305;52.186;5.598;2023-02-23T00:12:55;81.15;;;35.22;;
18929;SDS011;43305;52.186;5.598;2023-02-23T00:15:23;89.25;;;35.75;;
18929;SDS011;43305;52.186;5.598;2023-02-23T00:17:51;79.35;;;34.05;;
18929;SDS011;43305;52.186;5.598;2023-02-23T00:20:19;80.10;;;33.70;;
18929;SDS011;43305;52.186;5.598;2023-02-23T00:22:52;81.38;;;34.38;;
18929;SDS011;43305;52.186;5.598;2023-02-23T00:25:21;82.32;;;35.60;;
18929;SDS011;43305;52.186;5.598;2023-02-23T00:27:49;78.05;;;34.92;;
18929;SDS011;43305;52.186;5.598;2023-02-23T00:30:17;77.90;;;34.63;;
18929;SDS011;43305;52.186;5.598;2023-02-23T00:32:45;76.43;;;34.33;;
18929;SDS011;43305;52.186;5.598;2023-02-23T00:35:12;81.07;;;34.53;;
18929;SDS011;43305;52.186;5.598;2023-02-23T00:37:43;78.03;;;32.75;;
18929;SDS011;43305;52.186;5.598;2023-02-23T00:40:11;82.95;;;34.63;;
18929;SDS011;43305;52.186;5.598;2023-02-23T00:42:42;81.15;;;34.58;;
18929;SDS011;43305;52.186;5.598;2023-02-23T00:45:10;87.68;;;35.70;;
18929;SDS011;43305;52.186;5.598;2023-02-23T00:47:38;86.00;;;35.75;;
18929;SDS011;43305;52.186;5.598;2023-02-23T00:50:07;82.63;;;35.13;;
18929;SDS011;43305;52.186;5.598;2023-02-23T00:52:39;84.53;;;36.63;;
18929;SDS011;43305;52.186;5.598;2023-02-23T00:55:08;86.80;;;36.58;;
18929;SDS011;43305;52.186;5.598;2023-02-23T00:57:36;91.18;;;36.60;;
18929;SDS011;43305;52.186;5.598;2023-02-23T01:00:05;89.88;;;37.08;;
18929;SDS011;43305;52.186;5.598;2023-02-23T01:02:44;98.18;;;39.05;;
18929;SDS011;43305;52.186;5.598;2023-02-23T01:05:11;94.53;;;38.25;;
18929;SDS011;43305;52.186;5.598;2023-02-23T01:07:38;88.82;;;37.30;;
18929;SDS011;43305;52.186;5.598;2023-02-23T01:10:06;97.25;;;39.25;;
18929;SDS011;43305;52.186;5.598;2023-02-23T01:12:44;105.45;;;39.20;;
18929;SDS011;43305;52.186;5.598;2023-02-23T01:15:14;92.80;;;38.85;;
18929;SDS011;43305;52.186;5.598;2023-02-23T01:17:41;106.70;;;41.05;;
18929;SDS011;43305;52.186;5.598;2023-02-23T01:20:09;91.55;;;38.25;;
18929;SDS011;43305;52.186;5.598;2023-02-23T01:22:42;100.05;;;39.30;;
18929;SDS011;43305;52.186;5.598;2023-02-23T01:25:12;106.68;;;40.80;;
18929;SDS011;43305;52.186;5.598;2023-02-23T01:27:40;96.78;;;39.85;;
18929;SDS011;43305;52.186;5.598;2023-02-23T01:30:08;100.78;;;38.65;;
18929;SDS011;43305;52.186;5.598;2023-02-23T01:32:40;93.97;;;38.95;;
18929;SDS011;43305;52.186;5.598;2023-02-23T01:35:08;102.05;;;40.05;;
18929;SDS011;43305;52.186;5.598;2023-02-23T01:37:39;100.95;;;41.03;;
18929;SDS011;43305;52.186;5.598;2023-02-23T01:40:07;101.90;;;39.70;;
18929;SDS011;43305;52.186;5.598;2023-02-23T01:42:39;94.82;;;38.22;;
18929;SDS011;43305;52.186;5.598;2023-02-23T01:47:56;108.07;;;40.70;;
18929;SDS011;43305;52.186;5.598;2023-02-23T01:50:27;105.15;;;41.28;;
18929;SDS011;43305;52.186;5.598;2023-02-23T01:52:58;104.90;;;41.08;;
18929;SDS011;43305;52.186;5.598;2023-02-23T01:55:25;97.13;;;39.70;;
18929;SDS011;43305;52.186;5.598;2023-02-23T01:57:56;104.85;;;40.97;;
18929;SDS011;43305;52.186;5.598;2023-02-23T02:00:29;100.78;;;40.97;;
18929;SDS011;43305;52.186;5.598;2023-02-23T02:03:00;101.90;;;41.28;;
18929;SDS011;43305;52.186;5.598;2023-02-23T02:05:32;110.72;;;42.50;;
18929;SDS011;43305;52.186;5.598;2023-02-23T02:08:03;98.05;;;40.47;;
18929;SDS011;43305;52.186;5.598;2023-02-23T02:10:34;101.32;;;39.50;;
18929;SDS011;43305;52.186;5.598;2023-02-23T02:13:08;103.07;;;40.05;;
18929;SDS011;43305;52.186;5.598;2023-02-23T02:15:42;97.47;;;39.75;;
18929;SDS011;43305;52.186;5.598;2023-02-23T02:18:25;99.97;;;40.40;;
18929;SDS011;43305;52.186;5.598;2023-02-23T02:27:17;98.30;;;40.13;;
18929;SDS011;43305;52.186;5.598;2023-02-23T02:30:10;98.30;;;39.50;;
18929;SDS011;43305;52.186;5.598;2023-02-23T02:39:22;103.00;;;41.17;;
18929;SDS011;43305;52.186;5.598;2023-02-23T02:42:05;105.70;;;41.38;;
18929;SDS011;43305;52.186;5.598;2023-02-23T02:44:46;102.88;;;40.08;;
18929;SDS011;43305;52.186;5.598;2023-02-23T02:47:17;110.45;;;42.45;;
18929;SDS011;43305;52.186;5.598;2023-02-23T02:49:49;110.68;;;42.53;;
18929;SDS011;43305;52.186;5.598;2023-02-23T02:52:23;104.45;;;41.00;;
18929;SDS011;43305;52.186;5.598;2023-02-23T02:54:55;106.05;;;41.95;;
18929;SDS011;43305;52.186;5.598;2023-02-23T02:57:28;105.55;;;42.03;;
18929;SDS011;43305;52.186;5.598;2023-02-23T02:59:57;107.28;;;41.70;;
18929;SDS011;43305;52.186;5.598;2023-02-23T03:02:42;110.97;;;42.22;;
18929;SDS011;43305;52.186;5.598;2023-02-23T03:05:28;104.05;;;41.33;;
18929;SDS011;43305;52.186;5.598;2023-02-23T03:08:19;109.68;;;42.42;;
18929;SDS011;43305;52.186;5.598;2023-02-23T03:11:11;107.95;;;41.67;;
18929;SDS011;43305;52.186;5.598;2023-02-23T03:14:01;105.22;;;41.55;;
18929;SDS011;43305;52.186;5.598;2023-02-23T03:16:55;114.13;;;43.33;;
18929;SDS011;43305;52.186;5.598;2023-02-23T03:19:50;113.93;;;43.83;;
18929;SDS011;43305;52.186;5.598;2023-02-23T03:22:41;104.60;;;41.10;;
18929;SDS011;43305;52.186;5.598;2023-02-23T03:25:41;102.13;;;41.65;;
18929;SDS011;43305;52.186;5.598;2023-02-23T03:28:32;110.95;;;41.97;;
18929;SDS011;43305;52.186;5.598;2023-02-23T03:31:22;117.40;;;43.38;;
18929;SDS011;43305;52.186;5.598;2023-02-23T03:34:16;105.90;;;42.15;;
18929;SDS011;43305;52.186;5.598;2023-02-23T03:37:05;101.40;;;40.13;;
18929;SDS011;43305;52.186;5.598;2023-02-23T03:39:59;110.50;;;42.40;;
18929;SDS011;43305;52.186;5.598;2023-02-23T03:42:49;108.32;;;42.53;;
18929;SDS011;43305;52.186;5.598;2023-02-23T03:45:38;109.32;;;41.67;;
18929;SDS011;43305;52.186;5.598;2023-02-23T03:48:23;103.72;;;41.53;;
18929;SDS011;43305;52.186;5.598;2023-02-23T03:51:10;105.63;;;41.67;;
18929;SDS011;43305;52.186;5.598;2023-02-23T03:53:59;105.13;;;41.35;;
18929;SDS011;43305;52.186;5.598;2023-02-23T03:56:47;104.97;;;40.60;;
18929;SDS011;43305;52.186;5.598;2023-02-23T03:59:36;105.47;;;40.15;;
18929;SDS011;43305;52.186;5.598;2023-02-23T04:02:24;106.32;;;41.10;;
18929;SDS011;43305;52.186;5.598;2023-02-23T04:05:12;115.13;;;43.17;;
18929;SDS011;43305;52.186;5.598;2023-02-23T04:08:00;101.22;;;40.67;;
18929;SDS011;43305;52.186;5.598;2023-02-23T04:10:47;104.80;;;41.08;;
18929;SDS011;43305;52.186;5.598;2023-02-23T04:13:37;111.63;;;41.35;;
18929;SDS011;43305;52.186;5.598;2023-02-23T04:16:06;106.57;;;40.70;;
18929;SDS011;43305;52.186;5.598;2023-02-23T04:18:35;110.45;;;41.78;;
18929;SDS011;43305;52.186;5.598;2023-02-23T04:21:03;102.15;;;40.47;;
18929;SDS011;43305;52.186;5.598;2023-02-23T04:23:30;112.60;;;43.08;;
18929;SDS011;43305;52.186;5.598;2023-02-23T04:25:57;108.38;;;41.20;;
18929;SDS011;43305;52.186;5.598;2023-02-23T04:28:25;103.20;;;41.70;;
18929;SDS011;43305;52.186;5.598;2023-02-23T04:30:53;102.95;;;42.20;;
18929;SDS011;43305;52.186;5.598;2023-02-23T04:33:20;108.82;;;41.90;;
18929;SDS011;43305;52.186;5.598;2023-02-23T04:35:50;104.95;;;42.22;;
18929;SDS011;43305;52.186;5.598;2023-02-23T04:38:19;111.13;;;41.70;;
18929;SDS011;43305;52.186;5.598;2023-02-23T04:40:46;108.63;;;42.05;;
18929;SDS011;43305;52.186;5.598;2023-02-23T04:43:14;107.82;;;42.08;;
18929;SDS011;43305;52.186;5.598;2023-02-23T04:45:41;105.97;;;42.22;;
18929;SDS011;43305;52.186;5.598;2023-02-23T04:48:09;103.50;;;41.03;;
18929;SDS011;43305;52.186;5.598;2023-02-23T04:50:36;107.85;;;41.83;;
18929;SDS011;43305;52.186;5.598;2023-02-23T04:53:05;106.75;;;41.13;;
18929;SDS011;43305;52.186;5.598;2023-02-23T04:55:31;104.28;;;41.35;;
18929;SDS011;43305;52.186;5.598;2023-02-23T04:57:59;108.65;;;42.00;;
18929;SDS011;43305;52.186;5.598;2023-02-23T05:00:27;107.30;;;41.60;;
18929;SDS011;43305;52.186;5.598;2023-02-23T05:02:54;112.43;;;43.15;;
18929;SDS011;43305;52.186;5.598;2023-02-23T05:05:21;115.47;;;43.55;;
18929;SDS011;43305;52.186;5.598;2023-02-23T05:07:48;109.72;;;42.45;;
18929;SDS011;43305;52.186;5.598;2023-02-23T05:10:16;116.80;;;43.75;;
18929;SDS011;43305;52.186;5.598;2023-02-23T05:12:45;116.38;;;41.80;;
18929;SDS011;43305;52.186;5.598;2023-02-23T05:15:12;114.10;;;43.05;;
18929;SDS011;43305;52.186;5.598;2023-02-23T05:17:42;106.03;;;40.50;;
18929;SDS011;43305;52.186;5.598;2023-02-23T05:20:10;112.97;;;42.45;;
18929;SDS011;43305;52.186;5.598;2023-02-23T05:22:38;113.78;;;42.92;;
18929;SDS011;43305;52.186;5.598;2023-02-23T05:25:07;117.05;;;43.67;;
18929;SDS011;43305;52.186;5.598;2023-02-23T05:27:39;111.43;;;41.80;;
18929;SDS011;43305;52.186;5.598;2023-02-23T05:30:07;123.32;;;43.55;;
18929;SDS011;43305;52.186;5.598;2023-02-23T05:32:36;128.30;;;45.75;;
18929;SDS011;43305;52.186;5.598;2023-02-23T05:35:03;127.55;;;44.92;;
18929;SDS011;43305;52.186;5.598;2023-02-23T05:37:33;138.80;;;45.83;;
18929;SDS011;43305;52.186;5.598;2023-02-23T05:40:00;127.93;;;45.35;;
18929;SDS011;43305;52.186;5.598;2023-02-23T05:42:27;115.53;;;41.75;;
18929;SDS011;43305;52.186;5.598;2023-02-23T05:44:55;115.68;;;41.92;;
18929;SDS011;43305;52.186;5.598;2023-02-23T05:47:22;116.13;;;42.72;;
18929;SDS011;43305;52.186;5.598;2023-02-23T05:49:48;126.38;;;44.97;;
18929;SDS011;43305;52.186;5.598;2023-02-23T05:52:15;113.63;;;41.90;;
18929;SDS011;43305;52.186;5.598;2023-02-23T05:54:42;112.80;;;41.67;;
18929;SDS011;43305;52.186;5.598;2023-02-23T05:57:10;121.07;;;43.75;;
18929;SDS011;43305;52.186;5.598;2023-02-23T05:59:37;108.63;;;41.55;;
18929;SDS011;43305;52.186;5.598;2023-02-23T06:02:05;120.32;;;42.58;;
18929;SDS011;43305;52.186;5.598;2023-02-23T06:04:32;116.82;;;43.05;;
18929;SDS011;43305;52.186;5.598;2023-02-23T06:06:59;113.07;;;41.85;;
18929;SDS011;43305;52.186;5.598;2023-02-23T06:09:26;121.25;;;42.17;;
18929;SDS011;43305;52.186;5.598;2023-02-23T06:11:53;120.35;;;41.47;;
18929;SDS011;43305;52.186;5.598;2023-02-23T06:14:20;112.55;;;41.78;;
18929;SDS011;43305;52.186;5.598;2023-02-23T06:16:46;111.50;;;41.20;;
18929;SDS011;43305;52.186;5.598;2023-02-23T06:19:15;115.97;;;41.00;;
18929;SDS011;43305;52.186;5.598;2023-02-23T06:21:41;127.15;;;44.13;;
18929;SDS011;43305;52.186;5.598;2023-02-23T06:24:08;116.20;;;41.58;;
18929;SDS011;43305;52.186;5.598;2023-02-23T06:26:38;116.68;;;42.00;;
18929;SDS011;43305;52.186;5.598;2023-02-23T06:29:05;119.40;;;41.33;;
18929;SDS011;43305;52.186;5.598;2023-02-23T06:31:32;109.18;;;40.58;;
18929;SDS011;43305;52.186;5.598;2023-02-23T06:33:58;106.75;;;39.90;;
18929;SDS011;43305;52.186;5.598;2023-02-23T06:36:26;110.10;;;40.65;;
18929;SDS011;43305;52.186;5.598;2023-02-23T06:38:54;111.57;;;41.08;;
18929;SDS011;43305;52.186;5.598;2023-02-23T06:41:21;109.30;;;39.60;;
18929;SDS011;43305;52.186;5.598;2023-02-23T06:43:48;106.53;;;38.50;;
18929;SDS011;43305;52.186;5.598;2023-02-23T06:46:15;107.85;;;38.92;;
18929;SDS011;43305;52.186;5.598;2023-02-23T06:48:43;105.55;;;39.78;;
18929;SDS011;43305;52.186;5.598;2023-02-23T06:51:12;106.72;;;39.38;;
18929;SDS011;43305;52.186;5.598;2023-02-23T06:53:41;98.95;;;38.00;;
18929;SDS011;43305;52.186;5.598;2023-02-23T06:56:08;104.88;;;38.72;;
18929;SDS011;43305;52.186;5.598;2023-02-23T06:58:36;103.90;;;38.33;;
18929;SDS011;43305;52.186;5.598;2023-02-23T07:01:03;104.22;;;39.83;;
18929;SDS011;43305;52.186;5.598;2023-02-23T07:03:30;104.72;;;39.78;;
18929;SDS011;43305;52.186;5.598;2023-02-23T07:05:57;111.47;;;40.72;;
18929;SDS011;43305;52.186;5.598;2023-02-23T07:08:24;102.82;;;39.20;;
18929;SDS011;43305;52.186;5.598;2023-02-23T07:10:52;100.60;;;38.53;;
18929;SDS011;43305;52.186;5.598;2023-02-23T07:13:21;103.32;;;38.97;;
18929;SDS011;43305;52.186;5.598;2023-02-23T07:15:48;103.53;;;39.38;;
18929;SDS011;43305;52.186;5.598;2023-02-23T07:18:15;104.78;;;39.47;;
18929;SDS011;43305;52.186;5.598;2023-02-23T07:20:42;97.63;;;37.67;;
18929;SDS011;43305;52.186;5.598;2023-02-23T07:23:09;98.75;;;38.30;;
18929;SDS011;43305;52.186;5.598;2023-02-23T07:25:36;102.50;;;38.80;;
18929;SDS011;43305;52.186;5.598;2023-02-23T07:28:05;108.18;;;40.22;;
18929;SDS011;43305;52.186;5.598;2023-02-23T07:30:31;107.47;;;40.15;;
18929;SDS011;43305;52.186;5.598;2023-02-23T07:32:58;102.32;;;38.88;;
18929;SDS011;43305;52.186;5.598;2023-02-23T07:35:25;105.47;;;38.63;;
18929;SDS011;43305;52.186;5.598;2023-02-23T07:37:52;101.10;;;38.83;;
18929;SDS011;43305;52.186;5.598;2023-02-23T07:40:19;105.25;;;38.15;;
18929;SDS011;43305;52.186;5.598;2023-02-23T07:42:46;99.65;;;38.25;;
18929;SDS011;43305;52.186;5.598;2023-02-23T07:45:15;106.78;;;40.10;;
18929;SDS011;43305;52.186;5.598;2023-02-23T07:47:42;102.18;;;39.35;;
18929;SDS011;43305;52.186;5.598;2023-02-23T07:50:09;104.32;;;38.58;;
18929;SDS011;43305;52.186;5.598;2023-02-23T07:52:39;108.05;;;39.70;;
18929;SDS011;43305;52.186;5.598;2023-02-23T07:55:07;107.78;;;39.88;;
18929;SDS011;43305;52.186;5.598;2023-02-23T07:57:36;103.90;;;38.88;;
18929;SDS011;43305;52.186;5.598;2023-02-23T08:00:04;115.47;;;40.55;;
18929;SDS011;43305;52.186;5.598;2023-02-23T08:02:33;101.28;;;37.55;;
18929;SDS011;43305;52.186;5.598;2023-02-23T08:05:00;112.80;;;40.40;;
18929;SDS011;43305;52.186;5.598;2023-02-23T08:07:27;105.05;;;39.58;;
18929;SDS011;43305;52.186;5.598;2023-02-23T08:09:54;113.25;;;43.33;;
18929;SDS011;43305;52.186;5.598;2023-02-23T08:12:20;119.85;;;44.00;;
18929;SDS011;43305;52.186;5.598;2023-02-23T08:14:47;122.07;;;43.97;;
18929;SDS011;43305;52.186;5.598;2023-02-23T08:17:14;105.40;;;40.92;;
18929;SDS011;43305;52.186;5.598;2023-02-23T08:19:42;116.78;;;42.30;;
18929;SDS011;43305;52.186;5.598;2023-02-23T08:22:09;113.13;;;41.65;;
18929;SDS011;43305;52.186;5.598;2023-02-23T08:24:36;108.97;;;40.30;;
18929;SDS011;43305;52.186;5.598;2023-02-23T08:27:03;117.00;;;42.47;;
18929;SDS011;43305;52.186;5.598;2023-02-23T08:29:30;117.05;;;42.25;;
18929;SDS011;43305;52.186;5.598;2023-02-23T08:32:00;118.68;;;40.95;;
18929;SDS011;43305;52.186;5.598;2023-02-23T08:34:27;115.68;;;40.45;;
18929;SDS011;43305;52.186;5.598;2023-02-23T08:36:55;111.00;;;38.50;;
18929;SDS011;43305;52.186;5.598;2023-02-23T08:39:24;107.30;;;39.08;;
18929;SDS011;43305;52.186;5.598;2023-02-23T08:41:50;116.40;;;40.30;;
18929;SDS011;43305;52.186;5.598;2023-02-23T08:44:19;109.75;;;39.55;;
18929;SDS011;43305;52.186;5.598;2023-02-23T08:46:46;109.80;;;39.70;;
18929;SDS011;43305;52.186;5.598;2023-02-23T08:49:13;113.25;;;40.65;;
18929;SDS011;43305;52.186;5.598;2023-02-23T08:51:40;114.78;;;41.40;;
18929;SDS011;43305;52.186;5.598;2023-02-23T08:54:08;131.73;;;44.88;;
18929;SDS011;43305;52.186;5.598;2023-02-23T08:56:38;113.00;;;40.70;;
18929;SDS011;43305;52.186;5.598;2023-02-23T08:59:06;117.22;;;39.63;;
18929;SDS011;43305;52.186;5.598;2023-02-23T09:01:33;117.75;;;38.83;;
18929;SDS011;43305;52.186;5.598;2023-02-23T09:04:01;109.03;;;36.55;;
18929;SDS011;43305;52.186;5.598;2023-02-23T09:06:28;106.78;;;35.78;;
18929;SDS011;43305;52.186;5.598;2023-02-23T09:08:55;107.10;;;36.30;;
18929;SDS011;43305;52.186;5.598;2023-02-23T09:11:23;104.93;;;36.20;;
18929;SDS011;43305;52.186;5.598;2023-02-23T09:13:50;95.47;;;34.63;;
18929;SDS011;43305;52.186;5.598;2023-02-23T09:16:17;100.40;;;38.20;;
18929;SDS011;43305;52.186;5.598;2023-02-23T09:18:44;105.22;;;36.25;;
18929;SDS011;43305;52.186;5.598;2023-02-23T09:21:13;95.32;;;33.72;;
18929;SDS011;43305;52.186;5.598;2023-02-23T09:23:46;99.35;;;35.65;;
18929;SDS011;43305;52.186;5.598;2023-02-23T09:26:16;91.97;;;33.28;;
18929;SDS011;43305;52.186;5.598;2023-02-23T09:28:44;88.97;;;31.00;;
18929;SDS011;43305;52.186;5.598;2023-02-23T09:31:12;91.55;;;32.67;;
18929;SDS011;43305;52.186;5.598;2023-02-23T09:33:40;91.80;;;31.88;;
18929;SDS011;43305;52.186;5.598;2023-02-23T09:36:08;83.47;;;31.23;;
18929;SDS011;43305;52.186;5.598;2023-02-23T09:38:37;80.15;;;29.80;;
18929;SDS011;43305;52.186;5.598;2023-02-23T09:41:04;81.97;;;30.27;;
18929;SDS011;43305;52.186;5.598;2023-02-23T09:43:50;77.82;;;29.73;;
18929;SDS011;43305;52.186;5.598;2023-02-23T09:46:22;83.78;;;29.75;;
18929;SDS011;43305;52.186;5.598;2023-02-23T09:48:55;77.35;;;28.55;;
18929;SDS011;43305;52.186;5.598;2023-02-23T09:51:25;66.35;;;26.05;;
18929;SDS011;43305;52.186;5.598;2023-02-23T09:53:55;72.43;;;26.63;;
18929;SDS011;43305;52.186;5.598;2023-02-23T09:56:26;70.00;;;26.20;;
18929;SDS011;43305;52.186;5.598;2023-02-23T09:59:00;71.60;;;28.20;;
18929;SDS011;43305;52.186;5.598;2023-02-23T10:01:39;68.50;;;27.10;;
18929;SDS011;43305;52.186;5.598;2023-02-23T10:04:16;72.85;;;27.17;;
18929;SDS011;43305;52.186;5.598;2023-02-23T10:06:49;67.32;;;26.27;;
18929;SDS011;43305;52.186;5.598;2023-02-23T10:09:23;65.70;;;25.17;;
18929;SDS011;43305;52.186;5.598;2023-02-23T10:11:58;64.55;;;24.27;;
18929;SDS011;43305;52.186;5.598;2023-02-23T10:14:48;67.60;;;25.70;;
18929;SDS011;43305;52.186;5.598;2023-02-23T10:17:28;65.78;;;24.15;;
18929;SDS011;43305;52.186;5.598;2023-02-23T10:20:03;70.88;;;24.65;;
18929;SDS011;43305;52.186;5.598;2023-02-23T10:22:37;67.05;;;24.98;;
18929;SDS011;43305;52.186;5.598;2023-02-23T10:25:08;66.03;;;24.77;;
18929;SDS011;43305;52.186;5.598;2023-02-23T10:27:39;65.78;;;24.67;;
18929;SDS011;43305;52.186;5.598;2023-02-23T10:32:57;62.42;;;23.42;;
18929;SDS011;43305;52.186;5.598;2023-02-23T10:35:29;69.97;;;25.67;;
18929;SDS011;43305;52.186;5.598;2023-02-23T10:37:58;69.40;;;25.55;;
18929;SDS011;43305;52.186;5.598;2023-02-23T10:40:27;64.40;;;24.35;;
18929;SDS011;43305;52.186;5.598;2023-02-23T10:42:57;60.58;;;25.17;;
18929;SDS011;43305;52.186;5.598;2023-02-23T10:45:26;65.97;;;22.42;;
18929;SDS011;43305;52.186;5.598;2023-02-23T10:47:56;62.97;;;23.55;;
18929;SDS011;43305;52.186;5.598;2023-02-23T10:50:27;65.32;;;24.48;;
18929;SDS011;43305;52.186;5.598;2023-02-23T10:52:56;61.10;;;23.23;;
18929;SDS011;43305;52.186;5.598;2023-02-23T10:55:26;57.40;;;22.98;;
18929;SDS011;43305;52.186;5.598;2023-02-23T10:58:00;54.25;;;22.08;;
18929;SDS011;43305;52.186;5.598;2023-02-23T11:00:32;61.08;;;23.35;;
18929;SDS011;43305;52.186;5.598;2023-02-23T11:03:01;56.80;;;22.45;;
18929;SDS011;43305;52.186;5.598;2023-02-23T11:05:43;54.05;;;21.50;;
18929;SDS011;43305;52.186;5.598;2023-02-23T11:08:22;56.22;;;21.65;;
18929;SDS011;43305;52.186;5.598;2023-02-23T11:10:55;53.88;;;20.58;;
18929;SDS011;43305;52.186;5.598;2023-02-23T11:13:27;57.88;;;21.10;;
18929;SDS011;43305;52.186;5.598;2023-02-23T11:16:01;51.95;;;20.35;;
18929;SDS011;43305;52.186;5.598;2023-02-23T11:18:30;57.67;;;22.85;;
18929;SDS011;43305;52.186;5.598;2023-02-23T11:20:57;54.40;;;22.10;;
18929;SDS011;43305;52.186;5.598;2023-02-23T11:23:25;50.03;;;19.88;;
18929;SDS011;43305;52.186;5.598;2023-02-23T11:25:54;50.17;;;19.42;;
18929;SDS011;43305;52.186;5.598;2023-02-23T11:28:26;43.85;;;17.17;;
18929;SDS011;43305;52.186;5.598;2023-02-23T11:30:56;38.95;;;15.02;;
18929;SDS011;43305;52.186;5.598;2023-02-23T11:33:29;43.05;;;15.05;;
18929;SDS011;43305;52.186;5.598;2023-02-23T11:36:12;41.95;;;15.05;;
18929;SDS011;43305;52.186;5.598;2023-02-23T11:38:42;34.63;;;14.73;;
18929;SDS011;43305;52.186;5.598;2023-02-23T11:41:17;41.20;;;16.08;;
18929;SDS011;43305;52.186;5.598;2023-02-23T11:43:46;40.70;;;15.95;;
18929;SDS011;43305;52.186;5.598;2023-02-23T11:46:15;42.47;;;15.95;;
18929;SDS011;43305;52.186;5.598;2023-02-23T11:48:47;42.47;;;16.17;;
18929;SDS011;43305;52.186;5.598;2023-02-23T11:51:26;37.17;;;14.40;;
18929;SDS011;43305;52.186;5.598;2023-02-23T11:53:56;35.65;;;14.10;;
18929;SDS011;43305;52.186;5.598;2023-02-23T11:56:25;33.83;;;14.00;;
18929;SDS011;43305;52.186;5.598;2023-02-23T11:58:54;35.80;;;13.85;;
18929;SDS011;43305;52.186;5.598;2023-02-23T12:01:33;33.60;;;14.50;;
18929;SDS011;43305;52.186;5.598;2023-02-23T12:04:07;39.45;;;14.10;;
18929;SDS011;43305;52.186;5.598;2023-02-23T12:06:36;37.72;;;15.40;;
18929;SDS011;43305;52.186;5.598;2023-02-23T12:09:08;37.30;;;14.80;;
18929;SDS011;43305;52.186;5.598;2023-02-23T12:11:44;39.28;;;15.45;;
18929;SDS011;43305;52.186;5.598;2023-02-23T12:14:17;37.58;;;14.50;;
18929;SDS011;43305;52.186;5.598;2023-02-23T12:16:52;38.47;;;14.75;;
18929;SDS011;43305;52.186;5.598;2023-02-23T12:19:24;38.63;;;13.57;;
18929;SDS011;43305;52.186;5.598;2023-02-23T12:21:59;32.53;;;13.13;;
18929;SDS011;43305;52.186;5.598;2023-02-23T12:24:31;28.92;;;12.93;;
18929;SDS011;43305;52.186;5.598;2023-02-23T12:27:09;33.15;;;13.15;;
18929;SDS011;43305;52.186;5.598;2023-02-23T12:29:42;32.42;;;13.98;;
18929;SDS011;43305;52.186;5.598;2023-02-23T12:32:16;31.30;;;12.52;;
18929;SDS011;43305;52.186;5.598;2023-02-23T12:34:48;31.13;;;12.73;;
18929;SDS011;43305;52.186;5.598;2023-02-23T12:37:24;29.67;;;12.13;;
18929;SDS011;43305;52.186;5.598;2023-02-23T12:40:03;30.17;;;12.52;;
18929;SDS011;43305;52.186;5.598;2023-02-23T12:42:39;30.10;;;11.98;;
18929;SDS011;43305;52.186;5.598;2023-02-23T12:45:14;28.25;;;11.65;;
18929;SDS011;43305;52.186;5.598;2023-02-23T12:47:52;29.17;;;12.38;;
18929;SDS011;43305;52.186;5.598;2023-02-23T12:50:29;26.75;;;11.95;;
18929;SDS011;43305;52.186;5.598;2023-02-23T12:53:14;26.67;;;11.45;;
18929;SDS011;43305;52.186;5.598;2023-02-23T12:55:48;29.48;;;12.02;;
18929;SDS011;43305;52.186;5.598;2023-02-23T12:58:27;26.75;;;12.05;;
18929;SDS011;43305;52.186;5.598;2023-02-23T13:01:00;26.75;;;12.18;;
18929;SDS011;43305;52.186;5.598;2023-02-23T13:03:32;29.35;;;12.80;;
18929;SDS011;43305;52.186;5.598;2023-02-23T13:06:15;28.77;;;12.77;;
18929;SDS011;43305;52.186;5.598;2023-02-23T13:08:52;30.75;;;13.75;;
18929;SDS011;43305;52.186;5.598;2023-02-23T13:11:32;32.28;;;14.45;;
18929;SDS011;43305;52.186;5.598;2023-02-23T13:14:15;32.47;;;14.02;;
18929;SDS011;43305;52.186;5.598;2023-02-23T13:16:49;30.25;;;13.75;;
18929;SDS011;43305;52.186;5.598;2023-02-23T13:19:21;30.38;;;13.63;;
18929;SDS011;43305;52.186;5.598;2023-02-23T13:21:56;30.10;;;13.57;;
18929;SDS011;43305;52.186;5.598;2023-02-23T13:24:34;32.17;;;14.27;;
18929;SDS011;43305;52.186;5.598;2023-02-23T13:27:06;33.22;;;14.23;;
18929;SDS011;43305;52.186;5.598;2023-02-23T13:29:41;29.88;;;13.40;;
18929;SDS011;43305;52.186;5.598;2023-02-23T13:32:10;30.20;;;13.43;;
18929;SDS011;43305;52.186;5.598;2023-02-23T13:34:41;28.92;;;12.95;;
18929;SDS011;43305;52.186;5.598;2023-02-23T13:37:12;28.33;;;13.18;;
18929;SDS011;43305;52.186;5.598;2023-02-23T13:39:47;26.67;;;12.10;;
18929;SDS011;43305;52.186;5.598;2023-02-23T13:42:26;27.85;;;12.65;;
18929;SDS011;43305;52.186;5.598;2023-02-23T13:45:01;28.67;;;12.38;;
18929;SDS011;43305;52.186;5.598;2023-02-23T13:47:48;25.20;;;11.73;;
18929;SDS011;43305;52.186;5.598;2023-02-23T13:50:22;29.70;;;11.52;;
18929;SDS011;43305;52.186;5.598;2023-02-23T13:52:59;23.17;;;10.25;;
18929;SDS011;43305;52.186;5.598;2023-02-23T13:55:33;27.02;;;10.88;;
18929;SDS011;43305;52.186;5.598;2023-02-23T13:58:12;23.45;;;10.18;;
18929;SDS011;43305;52.186;5.598;2023-02-23T14:00:41;22.80;;;9.68;;
18929;SDS011;43305;52.186;5.598;2023-02-23T14:03:19;20.35;;;9.68;;
18929;SDS011;43305;52.186;5.598;2023-02-23T14:05:49;22.77;;;9.68;;
18929;SDS011;43305;52.186;5.598;2023-02-23T14:08:25;22.50;;;10.10;;
18929;SDS011;43305;52.186;5.598;2023-02-23T14:10:56;24.95;;;10.63;;
18929;SDS011;43305;52.186;5.598;2023-02-23T14:13:24;24.08;;;10.70;;
18929;SDS011;43305;52.186;5.598;2023-02-23T14:16:07;25.15;;;11.25;;
18929;SDS011;43305;52.186;5.598;2023-02-23T14:18:49;29.02;;;12.45;;
18929;SDS011;43305;52.186;5.598;2023-02-23T14:21:23;29.92;;;11.77;;
18929;SDS011;43305;52.186;5.598;2023-02-23T14:24:02;25.95;;;11.27;;
18929;SDS011;43305;52.186;5.598;2023-02-23T14:26:42;31.73;;;12.35;;
18929;SDS011;43305;52.186;5.598;2023-02-23T14:29:21;28.77;;;12.98;;
18929;SDS011;43305;52.186;5.598;2023-02-23T14:31:54;30.80;;;12.57;;
18929;SDS011;43305;52.186;5.598;2023-02-23T14:37:24;30.85;;;12.40;;
18929;SDS011;43305;52.186;5.598;2023-02-23T14:40:02;39.33;;;14.65;;
18929;SDS011;43305;52.186;5.598;2023-02-23T14:42:33;36.58;;;14.65;;
18929;SDS011;43305;52.186;5.598;2023-02-23T14:45:03;40.00;;;14.80;;
18929;SDS011;43305;52.186;5.598;2023-02-23T14:47:41;39.65;;;16.80;;
18929;SDS011;43305;52.186;5.598;2023-02-23T14:50:23;43.33;;;17.25;;
18929;SDS011;43305;52.186;5.598;2023-02-23T14:52:52;49.30;;;18.05;;
18929;SDS011;43305;52.186;5.598;2023-02-23T14:55:23;48.88;;;18.50;;
18929;SDS011;43305;52.186;5.598;2023-02-23T14:57:51;49.42;;;18.67;;
18929;SDS011;43305;52.186;5.598;2023-02-23T15:00:20;51.17;;;18.73;;
18929;SDS011;43305;52.186;5.598;2023-02-23T15:02:53;54.58;;;19.38;;
18929;SDS011;43305;52.186;5.598;2023-02-23T15:05:23;49.38;;;19.00;;